sensor_id;sensor_type;location;lat;lon;timestamp;pressure;altitude;pressure_sealevel;temperature
70819;BMP280;58439;51.046;13.692;2022-12-07T00:01:21;99871.75;;;3.05
70819;BMP280;58439;51.046;13.692;2022-12-07T00:03:51;99875.53;;;3.11
70819;BMP280;58439;51.046;13.692;2022-12-07T00:06:20;99877.59;;;3.07
70819;BMP280;58439;51.046;13.692;2022-12-07T00:08:48;99864.66;;;3.07
70819;BMP280;58439;51.046;13.692;2022-12-07T00:11:21;99870.22;;;3.12
70819;BMP280;58439;51.046;13.692;2022-12-07T00:13:56;99872.66;;;3.14
70819;BMP280;58439;51.046;13.692;2022-12-07T00:16:27;99871.06;;;3.13
70819;BMP280;58439;51.046;13.692;2022-12-07T00:18:55;99869.94;;;3.15
70819;BMP280;58439;51.046;13.692;2022-12-07T00:21:26;99869.41;;;3.12
70819;BMP280;58439;51.046;13.692;2022-12-07T00:23:55;99866.69;;;3.13
70819;BMP280;58439;51.046;13.692;2022-12-07T00:26:35;99858.25;;;3.11
70819;BMP280;58439;51.046;13.692;2022-12-07T00:29:15;99857.16;;;3.14
70819;BMP280;58439;51.046;13.692;2022-12-07T00:31:42;99846.03;;;3.13
70819;BMP280;58439;51.046;13.692;2022-12-07T00:34:17;99850.94;;;3.07
70819;BMP280;58439;51.046;13.692;2022-12-07T00:36:45;99848.63;;;3.04
70819;BMP280;58439;51.046;13.692;2022-12-07T00:39:13;99851.22;;;3.04
70819;BMP280;58439;51.046;13.692;2022-12-07T00:41:40;99844.09;;;3.15
70819;BMP280;58439;51.046;13.692;2022-12-07T00:44:07;99839.47;;;3.19
70819;BMP280;58439;51.046;13.692;2022-12-07T00:46:35;99845.66;;;3.26
70819;BMP280;58439;51.046;13.692;2022-12-07T00:49:02;99843.22;;;3.24
70819;BMP280;58439;51.046;13.692;2022-12-07T00:51:30;99843.53;;;3.21
70819;BMP280;58439;51.046;13.692;2022-12-07T00:53:57;99839.69;;;3.25
70819;BMP280;58439;51.046;13.692;2022-12-07T00:56:27;99836.72;;;3.20
70819;BMP280;58439;51.046;13.692;2022-12-07T00:59:01;99834.28;;;3.19
70819;BMP280;58439;51.046;13.692;2022-12-07T01:01:32;99836.72;;;3.20
70819;BMP280;58439;51.046;13.692;2022-12-07T01:04:00;99837.88;;;3.08
70819;BMP280;58439;51.046;13.692;2022-12-07T01:06:30;99836.88;;;3.19
70819;BMP280;58439;51.046;13.692;2022-12-07T01:08:59;99836.59;;;3.22
70819;BMP280;58439;51.046;13.692;2022-12-07T01:11:29;99831.56;;;3.20
70819;BMP280;58439;51.046;13.692;2022-12-07T01:14:00;99833.03;;;3.23
70819;BMP280;58439;51.046;13.692;2022-12-07T01:16:31;99828.97;;;3.20
70819;BMP280;58439;51.046;13.692;2022-12-07T01:19:00;99826.69;;;3.17
70819;BMP280;58439;51.046;13.692;2022-12-07T01:21:31;99824.81;;;3.10
70819;BMP280;58439;51.046;13.692;2022-12-07T01:24:05;99830.00;;;3.10
70819;BMP280;58439;51.046;13.692;2022-12-07T01:26:33;99828.66;;;3.06
70819;BMP280;58439;51.046;13.692;2022-12-07T01:29:01;99833.94;;;3.04
70819;BMP280;58439;51.046;13.692;2022-12-07T01:31:29;99835.44;;;3.07
70819;BMP280;58439;51.046;13.692;2022-12-07T01:33:59;99822.81;;;3.04
70819;BMP280;58439;51.046;13.692;2022-12-07T01:36:31;99821.56;;;3.08
70819;BMP280;58439;51.046;13.692;2022-12-07T01:39:03;99825.00;;;2.98
70819;BMP280;58439;51.046;13.692;2022-12-07T01:41:35;99825.47;;;2.94
70819;BMP280;58439;51.046;13.692;2022-12-07T01:44:22;99819.63;;;2.92
70819;BMP280;58439;51.046;13.692;2022-12-07T01:47:33;99824.41;;;2.87
70819;BMP280;58439;51.046;13.692;2022-12-07T01:50:00;99826.44;;;2.83
70819;BMP280;58439;51.046;13.692;2022-12-07T01:52:32;99822.06;;;2.93
70819;BMP280;58439;51.046;13.692;2022-12-07T01:55:08;99824.78;;;2.92
70819;BMP280;58439;51.046;13.692;2022-12-07T01:57:42;99825.22;;;2.87
70819;BMP280;58439;51.046;13.692;2022-12-07T02:00:11;99821.66;;;2.88
70819;BMP280;58439;51.046;13.692;2022-12-07T02:03:16;99826.34;;;2.75
70819;BMP280;58439;51.046;13.692;2022-12-07T02:05:47;99824.22;;;2.61
70819;BMP280;58439;51.046;13.692;2022-12-07T02:08:16;99822.78;;;2.48
70819;BMP280;58439;51.046;13.692;2022-12-07T02:10:44;99819.00;;;2.33
70819;BMP280;58439;51.046;13.692;2022-12-07T02:13:16;99819.19;;;2.22
70819;BMP280;58439;51.046;13.692;2022-12-07T02:16:13;99822.16;;;2.17
70819;BMP280;58439;51.046;13.692;2022-12-07T02:26:32;99814.72;;;2.14
70819;BMP280;58439;51.046;13.692;2022-12-07T02:29:34;99811.88;;;1.88
70819;BMP280;58439;51.046;13.692;2022-12-07T02:33:03;99813.00;;;1.66
70819;BMP280;58439;51.046;13.692;2022-12-07T02:36:36;99807.97;;;1.65
70819;BMP280;58439;51.046;13.692;2022-12-07T02:39:20;99804.72;;;1.72
70819;BMP280;58439;51.046;13.692;2022-12-07T02:41:56;99794.69;;;1.79
70819;BMP280;58439;51.046;13.692;2022-12-07T02:44:27;99790.63;;;1.86
70819;BMP280;58439;51.046;13.692;2022-12-07T02:47:03;99795.22;;;1.83
70819;BMP280;58439;51.046;13.692;2022-12-07T02:49:32;99788.16;;;1.85
70819;BMP280;58439;51.046;13.692;2022-12-07T02:52:00;99785.72;;;1.83
70819;BMP280;58439;51.046;13.692;2022-12-07T02:54:27;99786.13;;;1.79
70819;BMP280;58439;51.046;13.692;2022-12-07T02:57:46;99786.53;;;1.84
70819;BMP280;58439;51.046;13.692;2022-12-07T03:00:20;99788.25;;;1.93
70819;BMP280;58439;51.046;13.692;2022-12-07T03:03:14;99777.25;;;2.00
70819;BMP280;58439;51.046;13.692;2022-12-07T03:06:25;99777.38;;;2.09
70819;BMP280;58439;51.046;13.692;2022-12-07T03:12:20;99783.19;;;2.20
70819;BMP280;58439;51.046;13.692;2022-12-07T03:15:13;99774.81;;;2.18
70819;BMP280;58439;51.046;13.692;2022-12-07T03:17:45;99771.97;;;2.12
70819;BMP280;58439;51.046;13.692;2022-12-07T03:20:18;99769.91;;;2.06
70819;BMP280;58439;51.046;13.692;2022-12-07T03:22:47;99768.44;;;1.93
70819;BMP280;58439;51.046;13.692;2022-12-07T03:25:17;99760.06;;;1.82
70819;BMP280;58439;51.046;13.692;2022-12-07T03:27:54;99756.00;;;1.69
70819;BMP280;58439;51.046;13.692;2022-12-07T03:30:30;99752.75;;;1.67
70819;BMP280;58439;51.046;13.692;2022-12-07T03:33:07;99759.38;;;1.70
70819;BMP280;58439;51.046;13.692;2022-12-07T03:36:04;99762.78;;;1.61
70819;BMP280;58439;51.046;13.692;2022-12-07T03:41:37;99754.22;;;1.41
70819;BMP280;58439;51.046;13.692;2022-12-07T03:44:12;99755.19;;;1.40
70819;BMP280;58439;51.046;13.692;2022-12-07T03:49:45;99747.44;;;1.49
70819;BMP280;58439;51.046;13.692;2022-12-07T03:52:24;99746.94;;;1.56
70819;BMP280;58439;51.046;13.692;2022-12-07T03:57:55;99743.25;;;1.68
70819;BMP280;58439;51.046;13.692;2022-12-07T04:00:23;99735.94;;;1.73
70819;BMP280;58439;51.046;13.692;2022-12-07T04:02:55;99738.09;;;1.78
70819;BMP280;58439;51.046;13.692;2022-12-07T04:05:23;99740.41;;;1.81
70819;BMP280;58439;51.046;13.692;2022-12-07T04:07:50;99730.91;;;1.81
70819;BMP280;58439;51.046;13.692;2022-12-07T04:10:18;99723.44;;;1.78
70819;BMP280;58439;51.046;13.692;2022-12-07T04:12:45;99720.34;;;1.74
70819;BMP280;58439;51.046;13.692;2022-12-07T04:15:13;99716.91;;;1.74
70819;BMP280;58439;51.046;13.692;2022-12-07T04:17:40;99718.56;;;1.75
70819;BMP280;58439;51.046;13.692;2022-12-07T04:20:08;99716.91;;;1.74
70819;BMP280;58439;51.046;13.692;2022-12-07T04:22:35;99715.19;;;1.65
70819;BMP280;58439;51.046;13.692;2022-12-07T04:25:03;99708.81;;;1.59
70819;BMP280;58439;51.046;13.692;2022-12-07T04:27:31;99709.75;;;1.48
70819;BMP280;58439;51.046;13.692;2022-12-07T04:29:58;99718.84;;;1.43
70819;BMP280;58439;51.046;13.692;2022-12-07T04:32:25;99704.75;;;1.37
70819;BMP280;58439;51.046;13.692;2022-12-07T04:34:53;99703.66;;;1.40
70819;BMP280;58439;51.046;13.692;2022-12-07T04:37:22;99699.59;;;1.47
70819;BMP280;58439;51.046;13.692;2022-12-07T04:39:50;99690.38;;;1.44
70819;BMP280;58439;51.046;13.692;2022-12-07T04:42:17;99688.75;;;1.43
70819;BMP280;58439;51.046;13.692;2022-12-07T04:44:44;99685.22;;;1.44
70819;BMP280;58439;51.046;13.692;2022-12-07T04:47:11;99672.34;;;1.44
70819;BMP280;58439;51.046;13.692;2022-12-07T04:49:39;99664.31;;;1.38
70819;BMP280;58439;51.046;13.692;2022-12-07T04:52:06;99669.13;;;1.33
70819;BMP280;58439;51.046;13.692;2022-12-07T04:54:33;99672.50;;;1.33
70819;BMP280;58439;51.046;13.692;2022-12-07T04:57:00;99676.69;;;1.34
70819;BMP280;58439;51.046;13.692;2022-12-07T04:59:27;99670.75;;;1.24
70819;BMP280;58439;51.046;13.692;2022-12-07T05:01:54;99671.28;;;1.28
70819;BMP280;58439;51.046;13.692;2022-12-07T05:04:21;99663.97;;;1.33
70819;BMP280;58439;51.046;13.692;2022-12-07T05:06:48;99669.63;;;1.46
70819;BMP280;58439;51.046;13.692;2022-12-07T05:09:16;99656.47;;;1.49
70819;BMP280;58439;51.046;13.692;2022-12-07T05:11:43;99660.69;;;1.40
70819;BMP280;58439;51.046;13.692;2022-12-07T05:14:19;99658.97;;;1.31
70819;BMP280;58439;51.046;13.692;2022-12-07T05:16:50;99660.19;;;1.27
70819;BMP280;58439;51.046;13.692;2022-12-07T05:19:18;99654.19;;;1.27
70819;BMP280;58439;51.046;13.692;2022-12-07T05:21:47;99660.72;;;1.31
70819;BMP280;58439;51.046;13.692;2022-12-07T05:24:15;99661.22;;;1.44
70819;BMP280;58439;51.046;13.692;2022-12-07T05:26:44;99658.63;;;1.54
70819;BMP280;58439;51.046;13.692;2022-12-07T05:29:16;99657.66;;;1.64
70819;BMP280;58439;51.046;13.692;2022-12-07T05:31:44;99656.84;;;1.73
70819;BMP280;58439;51.046;13.692;2022-12-07T05:34:13;99656.72;;;1.75
70819;BMP280;58439;51.046;13.692;2022-12-07T05:36:40;99659.13;;;1.77
70819;BMP280;58439;51.046;13.692;2022-12-07T05:39:08;99650.31;;;1.79
70819;BMP280;58439;51.046;13.692;2022-12-07T05:41:36;99642.59;;;1.79
70819;BMP280;58439;51.046;13.692;2022-12-07T05:44:22;99643.53;;;1.78
70819;BMP280;58439;51.046;13.692;2022-12-07T05:46:49;99646.94;;;1.79
70819;BMP280;58439;51.046;13.692;2022-12-07T05:49:16;99639.88;;;1.81
70819;BMP280;58439;51.046;13.692;2022-12-07T05:51:44;99636.75;;;1.77
70819;BMP280;58439;51.046;13.692;2022-12-07T05:54:13;99637.16;;;1.72
70819;BMP280;58439;51.046;13.692;2022-12-07T05:56:40;99639.31;;;1.77
70819;BMP280;58439;51.046;13.692;2022-12-07T05:59:09;99637.09;;;1.92
70819;BMP280;58439;51.046;13.692;2022-12-07T06:02:00;99626.84;;;2.10
70819;BMP280;58439;51.046;13.692;2022-12-07T06:04:35;99632.50;;;2.23
70819;BMP280;58439;51.046;13.692;2022-12-07T06:07:03;99632.94;;;2.36
70819;BMP280;58439;51.046;13.692;2022-12-07T06:09:31;99629.81;;;2.42
70819;BMP280;58439;51.046;13.692;2022-12-07T06:11:59;99633.56;;;2.48
70819;BMP280;58439;51.046;13.692;2022-12-07T06:14:46;99629.22;;;2.48
70819;BMP280;58439;51.046;13.692;2022-12-07T06:17:13;99632.47;;;2.50
70819;BMP280;58439;51.046;13.692;2022-12-07T06:19:41;99631.34;;;2.53
70819;BMP280;58439;51.046;13.692;2022-12-07T06:22:12;99621.56;;;2.57
70819;BMP280;58439;51.046;13.692;2022-12-07T06:24:40;99618.16;;;2.56
70819;BMP280;58439;51.046;13.692;2022-12-07T06:27:08;99622.44;;;2.47
70819;BMP280;58439;51.046;13.692;2022-12-07T06:29:36;99610.31;;;2.58
70819;BMP280;58439;51.046;13.692;2022-12-07T06:32:04;99612.88;;;2.58
70819;BMP280;58439;51.046;13.692;2022-12-07T06:34:32;99606.16;;;2.65
70819;BMP280;58439;51.046;13.692;2022-12-07T06:36:59;99609.84;;;2.62
70819;BMP280;58439;51.046;13.692;2022-12-07T06:39:28;99608.25;;;2.61
70819;BMP280;58439;51.046;13.692;2022-12-07T06:41:56;99612.34;;;2.54
70819;BMP280;58439;51.046;13.692;2022-12-07T06:44:25;99616.78;;;2.62
70819;BMP280;58439;51.046;13.692;2022-12-07T06:46:52;99612.88;;;2.58
70819;BMP280;58439;51.046;13.692;2022-12-07T06:49:40;99612.34;;;2.54
70819;BMP280;58439;51.046;13.692;2022-12-07T06:52:07;99612.88;;;2.58
70819;BMP280;58439;51.046;13.692;2022-12-07T06:54:34;99615.31;;;2.59
70819;BMP280;58439;51.046;13.692;2022-12-07T06:57:01;99616.84;;;2.70
70819;BMP280;58439;51.046;13.692;2022-12-07T06:59:28;99622.22;;;2.76
70819;BMP280;58439;51.046;13.692;2022-12-07T07:01:56;99613.53;;;2.78
70819;BMP280;58439;51.046;13.692;2022-12-07T07:04:23;99613.00;;;2.74
70819;BMP280;58439;51.046;13.692;2022-12-07T07:06:51;99617.72;;;2.61
70819;BMP280;58439;51.046;13.692;2022-12-07T07:09:29;99616.03;;;2.52
70819;BMP280;58439;51.046;13.692;2022-12-07T07:12:02;99615.94;;;2.43
70819;BMP280;58439;51.046;13.692;2022-12-07T07:14:29;99626.53;;;2.22
70819;BMP280;58439;51.046;13.692;2022-12-07T07:16:56;99610.28;;;2.12
70819;BMP280;58439;51.046;13.692;2022-12-07T07:19:24;99621.72;;;2.00
70819;BMP280;58439;51.046;13.692;2022-12-07T07:21:51;99626.88;;;2.00
70819;BMP280;58439;51.046;13.692;2022-12-07T07:24:18;99630.28;;;2.00
70819;BMP280;58439;51.046;13.692;2022-12-07T07:26:46;99619.97;;;2.00
70819;BMP280;58439;51.046;13.692;2022-12-07T07:29:13;99632.03;;;2.00
70819;BMP280;58439;51.046;13.692;2022-12-07T07:31:40;99633.81;;;1.99
70819;BMP280;58439;51.046;13.692;2022-12-07T07:34:07;99630.16;;;2.02
70819;BMP280;58439;51.046;13.692;2022-12-07T07:36:35;99630.16;;;2.02
70819;BMP280;58439;51.046;13.692;2022-12-07T07:39:02;99635.69;;;2.07
70819;BMP280;58439;51.046;13.692;2022-12-07T07:41:30;99644.59;;;2.13
70819;BMP280;58439;51.046;13.692;2022-12-07T07:44:03;99642.03;;;2.13
70819;BMP280;58439;51.046;13.692;2022-12-07T07:46:31;99633.75;;;2.19
70819;BMP280;58439;51.046;13.692;2022-12-07T07:49:29;99644.69;;;2.31
70819;BMP280;58439;51.046;13.692;2022-12-07T07:53:17;99654.13;;;2.40
70819;BMP280;58439;51.046;13.692;2022-12-07T07:57:08;99643.25;;;2.46
70819;BMP280;58439;51.046;13.692;2022-12-07T08:04:11;99640.31;;;2.59
70819;BMP280;58439;51.046;13.692;2022-12-07T08:06:48;99640.53;;;2.65
70819;BMP280;58439;51.046;13.692;2022-12-07T08:09:15;99648.03;;;2.76
70819;BMP280;58439;51.046;13.692;2022-12-07T08:11:43;99645.69;;;2.83
70819;BMP280;58439;51.046;13.692;2022-12-07T08:14:10;99650.69;;;2.85
70819;BMP280;58439;51.046;13.692;2022-12-07T08:17:07;99646.66;;;2.82
70819;BMP280;58439;51.046;13.692;2022-12-07T08:19:38;99638.75;;;2.84
70819;BMP280;58439;51.046;13.692;2022-12-07T08:22:57;99637.22;;;2.91
70819;BMP280;58439;51.046;13.692;2022-12-07T08:36:24;99633.59;;;3.45
70819;BMP280;58439;51.046;13.692;2022-12-07T08:40:20;99636.84;;;3.56
70819;BMP280;58439;51.046;13.692;2022-12-07T08:42:51;99638.84;;;3.62
70819;BMP280;58439;51.046;13.692;2022-12-07T08:45:21;99644.06;;;3.70
70819;BMP280;58439;51.046;13.692;2022-12-07T08:48:10;99635.16;;;3.64
70819;BMP280;58439;51.046;13.692;2022-12-07T08:50:40;99649.88;;;3.72
70819;BMP280;58439;51.046;13.692;2022-12-07T08:53:23;99648.16;;;3.81
70819;BMP280;58439;51.046;13.692;2022-12-07T08:56:23;99649.38;;;3.94
70819;BMP280;58439;51.046;13.692;2022-12-07T08:59:01;99645.81;;;3.95
70819;BMP280;58439;51.046;13.692;2022-12-07T09:01:32;99649.28;;;4.12
70819;BMP280;58439;51.046;13.692;2022-12-07T09:04:02;99649.50;;;4.35
70819;BMP280;58439;51.046;13.692;2022-12-07T09:07:06;99637.25;;;4.70
70819;BMP280;58439;51.046;13.692;2022-12-07T09:09:37;99652.81;;;4.86
70819;BMP280;58439;51.046;13.692;2022-12-07T09:12:24;99647.63;;;4.86
70819;BMP280;58439;51.046;13.692;2022-12-07T09:14:52;99644.72;;;4.81
70819;BMP280;58439;51.046;13.692;2022-12-07T09:17:19;99654.91;;;4.74
70819;BMP280;58439;51.046;13.692;2022-12-07T09:19:47;99639.38;;;4.74
70819;BMP280;58439;51.046;13.692;2022-12-07T09:22:14;99644.53;;;4.82
70819;BMP280;58439;51.046;13.692;2022-12-07T09:24:43;99648.91;;;4.98
70819;BMP280;58439;51.046;13.692;2022-12-07T09:27:12;99649.88;;;5.14
70819;BMP280;58439;51.046;13.692;2022-12-07T09:29:40;99647.28;;;5.22
70819;BMP280;58439;51.046;13.692;2022-12-07T09:32:07;99654.28;;;5.05
70819;BMP280;58439;51.046;13.692;2022-12-07T09:34:38;99656.69;;;4.98
70819;BMP280;58439;51.046;13.692;2022-12-07T09:37:05;99655.41;;;5.02
70819;BMP280;58439;51.046;13.692;2022-12-07T09:39:33;99658.97;;;5.01
70819;BMP280;58439;51.046;13.692;2022-12-07T09:42:33;99652.34;;;5.07
70819;BMP280;58439;51.046;13.692;2022-12-07T09:45:05;99653.78;;;5.01
70819;BMP280;58439;51.046;13.692;2022-12-07T09:47:53;99644.72;;;4.97
70819;BMP280;58439;51.046;13.692;2022-12-07T09:52:16;99639.13;;;5.49
70819;BMP280;58439;51.046;13.692;2022-12-07T09:56:08;99634.19;;;5.79
70819;BMP280;58439;51.046;13.692;2022-12-07T10:00:16;99636.13;;;5.77
70819;BMP280;58439;51.046;13.692;2022-12-07T10:03:49;99630.91;;;5.85
70819;BMP280;58439;51.046;13.692;2022-12-07T10:06:17;99631.19;;;8.08
70819;BMP280;58439;51.046;13.692;2022-12-07T10:08:45;99617.34;;;10.09
70819;BMP280;58439;51.046;13.692;2022-12-07T10:11:13;99620.31;;;10.98
70819;BMP280;58439;51.046;13.692;2022-12-07T10:13:51;99616.69;;;11.13
70819;BMP280;58439;51.046;13.692;2022-12-07T10:16:40;99622.44;;;12.36
70819;BMP280;58439;51.046;13.692;2022-12-07T10:19:33;99622.78;;;10.73
70819;BMP280;58439;51.046;13.692;2022-12-07T10:22:14;99616.22;;;8.88
70819;BMP280;58439;51.046;13.692;2022-12-07T10:24:47;99623.00;;;10.12
70819;BMP280;58439;51.046;13.692;2022-12-07T10:27:32;99624.34;;;9.41
70819;BMP280;58439;51.046;13.692;2022-12-07T10:29:59;99614.69;;;8.44
70819;BMP280;58439;51.046;13.692;2022-12-07T10:32:36;99619.94;;;7.71
70819;BMP280;58439;51.046;13.692;2022-12-07T10:35:30;99614.56;;;6.99
70819;BMP280;58439;51.046;13.692;2022-12-07T10:38:00;99611.41;;;7.04
70819;BMP280;58439;51.046;13.692;2022-12-07T10:41:05;99614.97;;;6.73
70819;BMP280;58439;51.046;13.692;2022-12-07T10:43:36;99612.16;;;7.12
70819;BMP280;58439;51.046;13.692;2022-12-07T10:46:50;99618.06;;;7.06
70819;BMP280;58439;51.046;13.692;2022-12-07T10:52:58;99609.44;;;6.53
70819;BMP280;58439;51.046;13.692;2022-12-07T10:56:33;99605.16;;;6.37
70819;BMP280;58439;51.046;13.692;2022-12-07T11:19:14;99582.28;;;6.33
70819;BMP280;58439;51.046;13.692;2022-12-07T11:22:06;99577.69;;;6.43
70819;BMP280;58439;51.046;13.692;2022-12-07T11:34:45;99583.78;;;5.26
70819;BMP280;58439;51.046;13.692;2022-12-07T11:37:32;99586.75;;;4.82
70819;BMP280;58439;51.046;13.692;2022-12-07T11:40:50;99579.28;;;4.30
70819;BMP280;58439;51.046;13.692;2022-12-07T11:43:33;99583.44;;;4.23
70819;BMP280;58439;51.046;13.692;2022-12-07T11:46:18;99581.38;;;4.26
70819;BMP280;58439;51.046;13.692;2022-12-07T11:49:10;99579.56;;;4.19
70819;BMP280;58439;51.046;13.692;2022-12-07T11:51:42;99574.56;;;4.25
70819;BMP280;58439;51.046;13.692;2022-12-07T11:54:30;99573.47;;;4.36
70819;BMP280;58439;51.046;13.692;2022-12-07T11:57:12;99572.19;;;4.48
70819;BMP280;58439;51.046;13.692;2022-12-07T12:00:27;99565.03;;;4.42
70819;BMP280;58439;51.046;13.692;2022-12-07T12:03:09;99570.72;;;4.46
70819;BMP280;58439;51.046;13.692;2022-12-07T12:05:39;99570.41;;;4.73
70819;BMP280;58439;51.046;13.692;2022-12-07T12:08:26;99564.03;;;5.17
70819;BMP280;58439;51.046;13.692;2022-12-07T12:18:47;99559.81;;;6.02
70819;BMP280;58439;51.046;13.692;2022-12-07T12:26:28;99565.59;;;5.34
70819;BMP280;58439;51.046;13.692;2022-12-07T12:29:58;99573.09;;;5.29
70819;BMP280;58439;51.046;13.692;2022-12-07T13:20:49;99557.78;;;3.37
70819;BMP280;58439;51.046;13.692;2022-12-07T13:24:54;99556.00;;;3.37
70819;BMP280;58439;51.046;13.692;2022-12-07T13:42:13;99559.59;;;3.18
70819;BMP280;58439;51.046;13.692;2022-12-07T13:45:29;99553.88;;;3.07
70819;BMP280;58439;51.046;13.692;2022-12-07T14:14:11;99550.84;;;3.37
70819;BMP280;58439;51.046;13.692;2022-12-07T14:27:37;99543.50;;;3.59
70819;BMP280;58439;51.046;13.692;2022-12-07T14:30:06;99542.38;;;3.61
70819;BMP280;58439;51.046;13.692;2022-12-07T14:32:37;99544.50;;;3.66
70819;BMP280;58439;51.046;13.692;2022-12-07T14:35:12;99547.28;;;3.72
70819;BMP280;58439;51.046;13.692;2022-12-07T14:37:44;99543.56;;;3.75
70819;BMP280;58439;51.046;13.692;2022-12-07T14:40:20;99534.50;;;3.71
70819;BMP280;58439;51.046;13.692;2022-12-07T14:42:55;99542.13;;;3.72
70819;BMP280;58439;51.046;13.692;2022-12-07T14:45:27;99535.97;;;3.73
70819;BMP280;58439;51.046;13.692;2022-12-07T14:47:59;99536.44;;;3.69
70819;BMP280;58439;51.046;13.692;2022-12-07T14:50:52;99531.03;;;3.54
70819;BMP280;58439;51.046;13.692;2022-12-07T14:54:02;99533.38;;;3.39
70819;BMP280;58439;51.046;13.692;2022-12-07T14:57:25;99539.69;;;3.37
70819;BMP280;58439;51.046;13.692;2022-12-07T15:00:29;99547.84;;;3.50
70819;BMP280;58439;51.046;13.692;2022-12-07T15:07:22;99546.38;;;3.56
70819;BMP280;58439;51.046;13.692;2022-12-07T15:11:05;99543.94;;;3.54
70819;BMP280;58439;51.046;13.692;2022-12-07T15:14:01;99546.06;;;3.59
70819;BMP280;58439;51.046;13.692;2022-12-07T15:16:39;99547.69;;;3.60
70819;BMP280;58439;51.046;13.692;2022-12-07T15:22:23;99547.44;;;3.71
70819;BMP280;58439;51.046;13.692;2022-12-07T15:25:05;99549.72;;;3.82
70819;BMP280;58439;51.046;13.692;2022-12-07T15:27:33;99557.81;;;3.87
70819;BMP280;58439;51.046;13.692;2022-12-07T15:30:16;99547.38;;;3.97
70819;BMP280;58439;51.046;13.692;2022-12-07T15:32:49;99542.97;;;3.97
70819;BMP280;58439;51.046;13.692;2022-12-07T15:35:17;99544.09;;;3.95
70819;BMP280;58439;51.046;13.692;2022-12-07T15:37:46;99549.16;;;3.96
70819;BMP280;58439;51.046;13.692;2022-12-07T15:40:14;99547.50;;;3.95
70819;BMP280;58439;51.046;13.692;2022-12-07T15:42:45;99548.63;;;3.85
70819;BMP280;58439;51.046;13.692;2022-12-07T15:45:14;99552.31;;;3.82
70819;BMP280;58439;51.046;13.692;2022-12-07T15:47:44;99548.56;;;3.76
70819;BMP280;58439;51.046;13.692;2022-12-07T15:51:10;99544.53;;;3.74
70819;BMP280;58439;51.046;13.692;2022-12-07T15:53:44;99547.59;;;3.77
70819;BMP280;58439;51.046;13.692;2022-12-07T15:56:11;99539.38;;;3.74
70819;BMP280;58439;51.046;13.692;2022-12-07T15:58:39;99551.78;;;3.70
70819;BMP280;58439;51.046;13.692;2022-12-07T16:01:16;99550.31;;;3.68
70819;BMP280;58439;51.046;13.692;2022-12-07T16:03:44;99544.81;;;3.63
70819;BMP280;58439;51.046;13.692;2022-12-07T16:06:16;99551.41;;;3.49
70819;BMP280;58439;51.046;13.692;2022-12-07T16:08:45;99552.28;;;3.40
70819;BMP280;58439;51.046;13.692;2022-12-07T16:11:13;99555.78;;;3.31
70819;BMP280;58439;51.046;13.692;2022-12-07T16:13:41;99549.78;;;3.22
70819;BMP280;58439;51.046;13.692;2022-12-07T16:16:14;99554.97;;;3.22
70819;BMP280;58439;51.046;13.692;2022-12-07T16:18:46;99554.31;;;3.28
70819;BMP280;58439;51.046;13.692;2022-12-07T16:21:44;99562.44;;;3.33
70819;BMP280;58439;51.046;13.692;2022-12-07T16:28:50;99549.63;;;3.49
70819;BMP280;58439;51.046;13.692;2022-12-07T16:32:15;99553.03;;;3.58
70819;BMP280;58439;51.046;13.692;2022-12-07T16:34:58;99555.16;;;3.63
70819;BMP280;58439;51.046;13.692;2022-12-07T16:37:26;99552.59;;;3.71
70819;BMP280;58439;51.046;13.692;2022-12-07T16:39:54;99554.22;;;3.72
70819;BMP280;58439;51.046;13.692;2022-12-07T16:42:21;99548.75;;;3.75
70819;BMP280;58439;51.046;13.692;2022-12-07T16:45:25;99554.88;;;3.74
70819;BMP280;58439;51.046;13.692;2022-12-07T16:48:38;99550.53;;;3.74
70819;BMP280;58439;51.046;13.692;2022-12-07T16:51:11;99553.53;;;3.62
70819;BMP280;58439;51.046;13.692;2022-12-07T16:53:41;99551.97;;;3.69
70819;BMP280;58439;51.046;13.692;2022-12-07T16:56:38;99548.19;;;3.63
70819;BMP280;58439;51.046;13.692;2022-12-07T16:59:05;99557.53;;;3.56
70819;BMP280;58439;51.046;13.692;2022-12-07T17:01:35;99552.84;;;3.60
70819;BMP280;58439;51.046;13.692;2022-12-07T17:04:03;99563.09;;;3.69
70819;BMP280;58439;51.046;13.692;2022-12-07T17:06:32;99561.34;;;3.78
70819;BMP280;58439;51.046;13.692;2022-12-07T17:08:59;99560.06;;;3.74
70819;BMP280;58439;51.046;13.692;2022-12-07T17:11:39;99552.47;;;3.81
70819;BMP280;58439;51.046;13.692;2022-12-07T17:14:11;99553.28;;;3.81
70819;BMP280;58439;51.046;13.692;2022-12-07T17:16:58;99553.44;;;3.88
70819;BMP280;58439;51.046;13.692;2022-12-07T17:19:27;99551.03;;;3.86
70819;BMP280;58439;51.046;13.692;2022-12-07T17:21:55;99544.03;;;3.78
70819;BMP280;58439;51.046;13.692;2022-12-07T17:24:23;99547.44;;;3.71
70819;BMP280;58439;51.046;13.692;2022-12-07T17:43:28;99558.94;;;3.42
70819;BMP280;58439;51.046;13.692;2022-12-07T17:58:41;99552.50;;;3.46
70819;BMP280;58439;51.046;13.692;2022-12-07T18:09:43;99554.34;;;3.62
70819;BMP280;58439;51.046;13.692;2022-12-07T18:12:10;99560.53;;;3.69
70819;BMP280;58439;51.046;13.692;2022-12-07T18:19:23;99561.66;;;3.75
70819;BMP280;58439;51.046;13.692;2022-12-07T18:28:06;99566.34;;;3.37
70819;BMP280;58439;51.046;13.692;2022-12-07T18:30:34;99567.91;;;3.30
70819;BMP280;58439;51.046;13.692;2022-12-07T18:33:28;99565.38;;;3.12
70819;BMP280;58439;51.046;13.692;2022-12-07T18:36:01;99572.25;;;3.04
70819;BMP280;58439;51.046;13.692;2022-12-07T18:38:32;99564.56;;;3.12
70819;BMP280;58439;51.046;13.692;2022-12-07T18:41:40;99570.34;;;3.06
70819;BMP280;58439;51.046;13.692;2022-12-07T18:57:25;99576.06;;;2.56
70819;BMP280;58439;51.046;13.692;2022-12-07T19:00:12;99572.41;;;2.58
70819;BMP280;58439;51.046;13.692;2022-12-07T19:02:40;99567.59;;;2.63
70819;BMP280;58439;51.046;13.692;2022-12-07T19:05:22;99558.88;;;2.64
70819;BMP280;58439;51.046;13.692;2022-12-07T19:08:20;99564.22;;;2.63
70819;BMP280;58439;51.046;13.692;2022-12-07T19:15:34;99563.41;;;2.62
70819;BMP280;58439;51.046;13.692;2022-12-07T19:18:52;99556.50;;;2.71
70819;BMP280;58439;51.046;13.692;2022-12-07T19:22:05;99553.63;;;2.74
70819;BMP280;58439;51.046;13.692;2022-12-07T19:24:35;99559.44;;;2.76
70819;BMP280;58439;51.046;13.692;2022-12-07T19:27:37;99559.16;;;2.79
70819;BMP280;58439;51.046;13.692;2022-12-07T19:36:31;99551.47;;;2.87
70819;BMP280;58439;51.046;13.692;2022-12-07T19:38:59;99551.47;;;2.87